Teruhou Maru No.22 — JD3202 — position and weather

sailwx.info

Track history (hours):
 
Tides and Currents Weather Stations Pressure Air Temp Water Temp Dewpoint Dewpoint Depression Visibility Wind Speed Wind Dir Waves Ship Positions

Teruhou Maru No.22

Last reported at 2016-Aug-26 12:08 UTC. Time now 2016-Aug-29 00:09 UTC.
Position N 34°31' E 135°24'.

Length 76 m; draft 5 m.

Type: Cargo ship. MMSI: 431002552.

Date/timePositionNaut miles runAvg speedWind from/ knotsBaromVisibWave heightAir tempDewpointWater temp
2016-Aug-26 12:08N 34°31' E 135°24'0 0.0
2016-Aug-26 08:33N 34°31' E 135°24'10 9.8
2016-Aug-26 07:33N 34°34' E 135°13'16 0.7
2016-Aug-25 07:09N 34°37' E 134°54'813.5
2016-Aug-25 06:33N 34°36' E 135°04'11 5.5
2016-Aug-25 04:33N 34°42' E 135°15'0 0.0
2016-Aug-25 03:32N 34°42' E 135°15'0 0.0
2016-Aug-25 02:26N 34°42' E 135°15'0 0.0
2016-Aug-25 01:32N 34°42' E 135°15'0 0.0
2016-Aug-25 00:26N 34°42' E 135°15'0 0.0
2016-Aug-24 23:32N 34°42' E 135°15'1 0.6
2016-Aug-24 22:33N 34°42' E 135°15'0 0.2
2016-Aug-24 21:27N 34°42' E 135°14'0 0.0
2016-Aug-24 20:33N 34°42' E 135°14'0 0.0
2016-Aug-24 19:33N 34°42' E 135°14'0 0.0
2016-Aug-24 18:33N 34°42' E 135°14'6 6.2
2016-Aug-24 17:33N 34°36' E 135°11'17 2.1
2016-Aug-24 09:15N 34°40' E 134°50'710.3
2016-Aug-24 08:33N 34°38' E 134°58'1111.0
2016-Aug-24 07:33N 34°35' E 135°11'13 0.5
2016-Aug-23 08:17N 34°33' E 135°26'710.1
2016-Aug-23 07:33N 34°34' E 135°17'1313.3
2016-Aug-23 06:33N 34°37' E 135°02'4 0.2
2016-Aug-22 08:31N 34°38' E 134°57'1010.0
2016-Aug-22 07:33N 34°37' E 135°08'8 7.8
2016-Aug-22 06:33N 34°42' E 135°15'0 0.0
2016-Aug-22 05:32N 34°42' E 135°15'0 0.0
2016-Aug-22 04:32N 34°42' E 135°15'0 0.0
2016-Aug-22 03:26N 34°42' E 135°15'0 0.0
2016-Aug-22 01:32N 34°42' E 135°15'0 0.0
2016-Aug-22 00:14N 34°42' E 135°15'0 0.0
2016-Aug-21 23:32N 34°42' E 135°15'1 0.7
2016-Aug-21 22:33N 34°42' E 135°15'0 0.1
2016-Aug-21 21:31N 34°42' E 135°15'0 0.0
2016-Aug-21 20:32N 34°42' E 135°15'0 0.0
2016-Aug-21 19:25N 34°42' E 135°15'0 0.0
2016-Aug-21 18:31N 34°42' E 135°15'0 0.0
2016-Aug-21 17:31N 34°42' E 135°15'0 0.0
2016-Aug-21 16:19N 34°42' E 135°15'0 0.0
2016-Aug-21 15:31N 34°42' E 135°15'0 0.0
2016-Aug-21 14:31N 34°42' E 135°15'0 0.0
2016-Aug-21 13:31N 34°42' E 135°15'0 0.0
2016-Aug-21 12:25N 34°42' E 135°15'0 0.0
2016-Aug-21 11:31N 34°42' E 135°15'0 0.0
2016-Aug-21 10:31N 34°42' E 135°15'4 4.3
2016-Aug-21 09:33N 34°38' E 135°16'1212.3
2016-Aug-21 08:33N 34°37' E 135°01'11 0.4
2016-Aug-20 05:25N 34°40' E 134°48'8 8.9
2016-Aug-20 04:30N 34°37' E 134°57'8 8.0
2016-Aug-20 03:33N 34°33' E 135°05'  
Track history (hours):
 
Tides and Currents Weather Stations Pressure Air Temp Water Temp Dewpoint Dewpoint Depression Visibility Wind Speed Wind Dir Waves Ship Positions

Teruhou Maru No.22

Last reported at 2016-Aug-26 12:08 UTC. Time now 2016-Aug-29 00:09 UTC.
Position N 34°31' E 135°24'.

Length 76 m; draft 5 m.

Type: Cargo ship. MMSI: 431002552.

Date/timePositionNaut miles runAvg speedWind from/ knotsBaromVisibWave heightAir tempDewpointWater temp
2016-Aug-26 12:08N 34°31' E 135°24'0 0.0
2016-Aug-26 08:33N 34°31' E 135°24'10 9.8
2016-Aug-26 07:33N 34°34' E 135°13'16 0.7
2016-Aug-25 07:09N 34°37' E 134°54'813.5
2016-Aug-25 06:33N 34°36' E 135°04'11 5.5
2016-Aug-25 04:33N 34°42' E 135°15'0 0.0
2016-Aug-25 03:32N 34°42' E 135°15'0 0.0
2016-Aug-25 02:26N 34°42' E 135°15'0 0.0
2016-Aug-25 01:32N 34°42' E 135°15'0 0.0
2016-Aug-25 00:26N 34°42' E 135°15'0 0.0
2016-Aug-24 23:32N 34°42' E 135°15'1 0.6
2016-Aug-24 22:33N 34°42' E 135°15'0 0.2
2016-Aug-24 21:27N 34°42' E 135°14'0 0.0
2016-Aug-24 20:33N 34°42' E 135°14'0 0.0
2016-Aug-24 19:33N 34°42' E 135°14'0 0.0
2016-Aug-24 18:33N 34°42' E 135°14'6 6.2
2016-Aug-24 17:33N 34°36' E 135°11'17 2.1
2016-Aug-24 09:15N 34°40' E 134°50'710.3
2016-Aug-24 08:33N 34°38' E 134°58'1111.0
2016-Aug-24 07:33N 34°35' E 135°11'13 0.5
2016-Aug-23 08:17N 34°33' E 135°26'710.1
2016-Aug-23 07:33N 34°34' E 135°17'1313.3
2016-Aug-23 06:33N 34°37' E 135°02'4 0.2
2016-Aug-22 08:31N 34°38' E 134°57'1010.0
2016-Aug-22 07:33N 34°37' E 135°08'8 7.8
2016-Aug-22 06:33N 34°42' E 135°15'0 0.0
2016-Aug-22 05:32N 34°42' E 135°15'0 0.0
2016-Aug-22 04:32N 34°42' E 135°15'0 0.0
2016-Aug-22 03:26N 34°42' E 135°15'0 0.0
2016-Aug-22 01:32N 34°42' E 135°15'0 0.0
2016-Aug-22 00:14N 34°42' E 135°15'0 0.0
2016-Aug-21 23:32N 34°42' E 135°15'1 0.7
2016-Aug-21 22:33N 34°42' E 135°15'0 0.1
2016-Aug-21 21:31N 34°42' E 135°15'0 0.0
2016-Aug-21 20:32N 34°42' E 135°15'0 0.0
2016-Aug-21 19:25N 34°42' E 135°15'0 0.0
2016-Aug-21 18:31N 34°42' E 135°15'0 0.0
2016-Aug-21 17:31N 34°42' E 135°15'0 0.0
2016-Aug-21 16:19N 34°42' E 135°15'0 0.0
2016-Aug-21 15:31N 34°42' E 135°15'0 0.0
2016-Aug-21 14:31N 34°42' E 135°15'0 0.0
2016-Aug-21 13:31N 34°42' E 135°15'0 0.0
2016-Aug-21 12:25N 34°42' E 135°15'0 0.0
2016-Aug-21 11:31N 34°42' E 135°15'0 0.0
2016-Aug-21 10:31N 34°42' E 135°15'4 4.3
2016-Aug-21 09:33N 34°38' E 135°16'1212.3
2016-Aug-21 08:33N 34°37' E 135°01'11 0.4
2016-Aug-20 05:25N 34°40' E 134°48'8 8.9
2016-Aug-20 04:30N 34°37' E 134°57'8 8.0
2016-Aug-20 03:33N 34°33' E 135°05'  

Dump ship's entire track history